sensor_id;sensor_type;location;lat;lon;timestamp;pressure;altitude;pressure_sealevel;temperature;humidity
10482;BME280;5288;42.334;23.876;2024-02-28T00:02:01;56468.41;;;-140.56;100.00
10482;BME280;5288;42.334;23.876;2024-02-28T00:04:28;56454.59;;;-140.56;100.00
10482;BME280;5288;42.334;23.876;2024-02-28T00:06:56;56436.78;;;-140.56;100.00
10482;BME280;5288;42.334;23.876;2024-02-28T00:09:24;56432.84;;;-140.56;100.00
10482;BME280;5288;42.334;23.876;2024-02-28T00:11:51;56438.78;;;-140.56;100.00
10482;BME280;5288;42.334;23.876;2024-02-28T00:14:18;56420.97;;;-140.56;100.00
10482;BME280;5288;42.334;23.876;2024-02-28T00:16:45;56484.22;;;-140.56;100.00
10482;BME280;5288;42.334;23.876;2024-02-28T00:19:13;56424.94;;;-140.56;100.00
10482;BME280;5288;42.334;23.876;2024-02-28T00:21:40;56436.78;;;-140.56;100.00
10482;BME280;5288;42.334;23.876;2024-02-28T00:24:09;56450.63;;;-140.56;100.00
10482;BME280;5288;42.334;23.876;2024-02-28T00:26:37;56450.63;;;-140.56;100.00
10482;BME280;5288;42.334;23.876;2024-02-28T00:29:04;56419.00;;;-140.56;100.00
10482;BME280;5288;42.334;23.876;2024-02-28T00:31:31;56440.75;;;-140.56;100.00
10482;BME280;5288;42.334;23.876;2024-02-28T00:33:58;56409.13;;;-140.56;100.00
10482;BME280;5288;42.334;23.876;2024-02-28T00:36:25;56446.69;;;-140.56;100.00
10482;BME280;5288;42.334;23.876;2024-02-28T00:38:52;56462.47;;;-140.56;100.00
10482;BME280;5288;42.334;23.876;2024-02-28T00:41:20;56456.56;;;-140.56;100.00
10482;BME280;5288;42.334;23.876;2024-02-28T00:43:47;56470.38;;;-140.56;100.00
10482;BME280;5288;42.334;23.876;2024-02-28T00:46:14;56440.75;;;-140.56;100.00
10482;BME280;5288;42.334;23.876;2024-02-28T00:48:41;56422.97;;;-140.56;100.00
10482;BME280;5288;42.334;23.876;2024-02-28T00:51:08;56417.03;;;-140.56;100.00
10482;BME280;5288;42.334;23.876;2024-02-28T00:53:35;56452.59;;;-140.56;100.00
10482;BME280;5288;42.334;23.876;2024-02-28T00:56:04;56442.72;;;-140.56;100.00
10482;BME280;5288;42.334;23.876;2024-02-28T00:58:33;56444.69;;;-140.56;100.00
10482;BME280;5288;42.334;23.876;2024-02-28T01:01:00;56462.47;;;-140.56;100.00
10482;BME280;5288;42.334;23.876;2024-02-28T01:03:27;56444.69;;;-140.56;100.00
10482;BME280;5288;42.334;23.876;2024-02-28T01:05:53;56417.03;;;-140.56;100.00
10482;BME280;5288;42.334;23.876;2024-02-28T01:08:20;56409.13;;;-140.56;100.00
10482;BME280;5288;42.334;23.876;2024-02-28T01:10:47;56411.09;;;-140.56;100.00
10482;BME280;5288;42.334;23.876;2024-02-28T01:13:15;56415.06;;;-140.56;100.00
10482;BME280;5288;42.334;23.876;2024-02-28T01:15:43;56462.47;;;-140.56;100.00
10482;BME280;5288;42.334;23.876;2024-02-28T01:18:10;56430.88;;;-140.56;100.00
10482;BME280;5288;42.334;23.876;2024-02-28T01:20:37;56460.50;;;-140.56;100.00
10482;BME280;5288;42.334;23.876;2024-02-28T01:23:04;56448.66;;;-140.56;100.00
10482;BME280;5288;42.334;23.876;2024-02-28T01:25:31;56419.00;;;-140.56;100.00
10482;BME280;5288;42.334;23.876;2024-02-28T01:27:58;56428.88;;;-140.56;100.00
10482;BME280;5288;42.334;23.876;2024-02-28T01:30:25;56430.88;;;-140.56;100.00
10482;BME280;5288;42.334;23.876;2024-02-28T01:32:54;56458.53;;;-140.56;100.00
10482;BME280;5288;42.334;23.876;2024-02-28T01:35:21;56426.91;;;-140.56;100.00
10482;BME280;5288;42.334;23.876;2024-02-28T01:37:48;56417.03;;;-140.56;100.00
10482;BME280;5288;42.334;23.876;2024-02-28T01:40:15;56420.97;;;-140.56;100.00
10482;BME280;5288;42.334;23.876;2024-02-28T01:42:42;56424.94;;;-140.56;100.00
10482;BME280;5288;42.334;23.876;2024-02-28T01:45:13;56434.81;;;-140.56;100.00
10482;BME280;5288;42.334;23.876;2024-02-28T01:47:40;56430.88;;;-140.56;100.00
10482;BME280;5288;42.334;23.876;2024-02-28T01:50:09;56424.94;;;-140.56;100.00
10482;BME280;5288;42.334;23.876;2024-02-28T01:52:38;56417.03;;;-140.56;100.00
10482;BME280;5288;42.334;23.876;2024-02-28T01:55:06;56436.78;;;-140.56;100.00
10482;BME280;5288;42.334;23.876;2024-02-28T01:57:36;56444.69;;;-140.56;100.00
10482;BME280;5288;42.334;23.876;2024-02-28T02:00:05;56422.97;;;-140.56;100.00
10482;BME280;5288;42.334;23.876;2024-02-28T02:02:33;56424.94;;;-140.56;100.00
10482;BME280;5288;42.334;23.876;2024-02-28T02:05:01;56424.94;;;-140.56;100.00
10482;BME280;5288;42.334;23.876;2024-02-28T02:07:30;56415.06;;;-140.56;100.00
10482;BME280;5288;42.334;23.876;2024-02-28T02:09:57;56432.84;;;-140.56;100.00
10482;BME280;5288;42.334;23.876;2024-02-28T02:12:24;56440.75;;;-140.56;100.00
10482;BME280;5288;42.334;23.876;2024-02-28T02:14:51;56432.84;;;-140.56;100.00
10482;BME280;5288;42.334;23.876;2024-02-28T02:17:19;56426.91;;;-140.56;100.00
10482;BME280;5288;42.334;23.876;2024-02-28T02:19:46;56426.91;;;-140.56;100.00
10482;BME280;5288;42.334;23.876;2024-02-28T02:22:13;56434.81;;;-140.56;100.00
10482;BME280;5288;42.334;23.876;2024-02-28T02:24:42;56432.84;;;-140.56;100.00
10482;BME280;5288;42.334;23.876;2024-02-28T02:27:09;56442.72;;;-140.56;100.00
10482;BME280;5288;42.334;23.876;2024-02-28T02:29:36;56422.97;;;-140.56;100.00
10482;BME280;5288;42.334;23.876;2024-02-28T02:32:03;56415.06;;;-140.56;100.00
10482;BME280;5288;42.334;23.876;2024-02-28T02:34:30;56417.03;;;-140.56;100.00
10482;BME280;5288;42.334;23.876;2024-02-28T02:36:57;56397.25;;;-140.56;100.00
10482;BME280;5288;42.334;23.876;2024-02-28T02:39:24;56442.72;;;-140.56;100.00
10482;BME280;5288;42.334;23.876;2024-02-28T02:41:52;56407.16;;;-140.56;100.00
10482;BME280;5288;42.334;23.876;2024-02-28T02:44:19;56415.06;;;-140.56;100.00
10482;BME280;5288;42.334;23.876;2024-02-28T02:46:46;56450.63;;;-140.56;100.00
10482;BME280;5288;42.334;23.876;2024-02-28T02:49:13;56440.75;;;-140.56;100.00
10482;BME280;5288;42.334;23.876;2024-02-28T02:51:40;56405.16;;;-140.56;100.00
10482;BME280;5288;42.334;23.876;2024-02-28T02:54:09;56442.72;;;-140.56;100.00
10482;BME280;5288;42.334;23.876;2024-02-28T02:56:36;56417.03;;;-140.56;100.00
10482;BME280;5288;42.334;23.876;2024-02-28T02:59:04;56409.13;;;-140.56;100.00
10482;BME280;5288;42.334;23.876;2024-02-28T03:01:31;56391.34;;;-140.56;100.00
10482;BME280;5288;42.334;23.876;2024-02-28T03:03:58;56422.97;;;-140.56;100.00
10482;BME280;5288;42.334;23.876;2024-02-28T03:06:25;56456.56;;;-140.56;100.00
10482;BME280;5288;42.334;23.876;2024-02-28T03:08:53;56442.72;;;-140.56;100.00
10482;BME280;5288;42.334;23.876;2024-02-28T03:11:20;56419.00;;;-140.56;100.00
10482;BME280;5288;42.334;23.876;2024-02-28T03:13:47;56446.69;;;-140.56;100.00
10482;BME280;5288;42.334;23.876;2024-02-28T03:16:15;56405.16;;;-140.56;100.00
10482;BME280;5288;42.334;23.876;2024-02-28T03:18:42;56428.88;;;-140.56;100.00
10482;BME280;5288;42.334;23.876;2024-02-28T03:21:09;56422.97;;;-140.56;100.00
10482;BME280;5288;42.334;23.876;2024-02-28T03:23:37;56424.94;;;-140.56;100.00
10482;BME280;5288;42.334;23.876;2024-02-28T03:26:04;56413.06;;;-140.56;100.00
10482;BME280;5288;42.334;23.876;2024-02-28T03:28:31;56426.91;;;-140.56;100.00
10482;BME280;5288;42.334;23.876;2024-02-28T03:30:58;56436.78;;;-140.56;100.00
10482;BME280;5288;42.334;23.876;2024-02-28T03:33:26;56415.06;;;-140.56;100.00
10482;BME280;5288;42.334;23.876;2024-02-28T03:35:54;56434.81;;;-140.56;100.00
10482;BME280;5288;42.334;23.876;2024-02-28T03:38:21;56426.91;;;-140.56;100.00
10482;BME280;5288;42.334;23.876;2024-02-28T03:40:48;56371.56;;;-140.56;100.00
10482;BME280;5288;42.334;23.876;2024-02-28T03:43:15;56424.94;;;-140.56;100.00
10482;BME280;5288;42.334;23.876;2024-02-28T03:45:42;56422.97;;;-140.56;100.00
10482;BME280;5288;42.334;23.876;2024-02-28T03:48:09;56426.91;;;-140.56;100.00
10482;BME280;5288;42.334;23.876;2024-02-28T03:50:38;56409.13;;;-140.56;100.00
10482;BME280;5288;42.334;23.876;2024-02-28T03:53:05;56436.78;;;-140.56;100.00
10482;BME280;5288;42.334;23.876;2024-02-28T03:55:32;56422.97;;;-140.56;100.00
10482;BME280;5288;42.334;23.876;2024-02-28T03:57:59;56409.13;;;-140.56;100.00
10482;BME280;5288;42.334;23.876;2024-02-28T04:00:25;56420.97;;;-140.56;100.00
10482;BME280;5288;42.334;23.876;2024-02-28T04:02:52;56397.25;;;-140.56;100.00
10482;BME280;5288;42.334;23.876;2024-02-28T04:05:19;56369.59;;;-140.56;100.00
10482;BME280;5288;42.334;23.876;2024-02-28T04:07:48;56417.03;;;-140.56;100.00
10482;BME280;5288;42.334;23.876;2024-02-28T04:10:15;56401.22;;;-140.56;100.00
10482;BME280;5288;42.334;23.876;2024-02-28T04:12:42;56387.38;;;-140.56;100.00
10482;BME280;5288;42.334;23.876;2024-02-28T04:15:11;56409.13;;;-140.56;100.00
10482;BME280;5288;42.334;23.876;2024-02-28T04:17:38;56420.97;;;-140.56;100.00
10482;BME280;5288;42.334;23.876;2024-02-28T04:20:08;56377.50;;;-140.56;100.00
10482;BME280;5288;42.334;23.876;2024-02-28T04:22:35;56444.69;;;-140.56;100.00
10482;BME280;5288;42.334;23.876;2024-02-28T04:25:05;56446.69;;;-140.56;100.00
10482;BME280;5288;42.334;23.876;2024-02-28T04:27:33;56444.69;;;-140.56;100.00
10482;BME280;5288;42.334;23.876;2024-02-28T04:30:00;56387.38;;;-140.56;100.00
10482;BME280;5288;42.334;23.876;2024-02-28T04:32:27;56379.47;;;-140.56;100.00
10482;BME280;5288;42.334;23.876;2024-02-28T04:34:54;56419.00;;;-140.56;100.00
10482;BME280;5288;42.334;23.876;2024-02-28T04:37:21;56419.00;;;-140.56;100.00
10482;BME280;5288;42.334;23.876;2024-02-28T04:39:48;56413.06;;;-140.56;100.00
10482;BME280;5288;42.334;23.876;2024-02-28T04:42:17;56438.78;;;-140.56;100.00
10482;BME280;5288;42.334;23.876;2024-02-28T04:44:44;56405.16;;;-140.56;100.00
10482;BME280;5288;42.334;23.876;2024-02-28T04:47:11;56434.81;;;-140.56;100.00
10482;BME280;5288;42.334;23.876;2024-02-28T04:49:38;56409.13;;;-140.56;100.00
10482;BME280;5288;42.334;23.876;2024-02-28T04:52:05;56438.78;;;-140.56;100.00
10482;BME280;5288;42.334;23.876;2024-02-28T04:54:33;56422.97;;;-140.56;100.00
10482;BME280;5288;42.334;23.876;2024-02-28T04:57:00;56428.88;;;-140.56;100.00
10482;BME280;5288;42.334;23.876;2024-02-28T04:59:30;56409.13;;;-140.56;100.00
10482;BME280;5288;42.334;23.876;2024-02-28T05:01:57;56397.25;;;-140.56;100.00
10482;BME280;5288;42.334;23.876;2024-02-28T05:04:24;56415.06;;;-140.56;100.00
10482;BME280;5288;42.334;23.876;2024-02-28T05:06:52;56422.97;;;-140.56;100.00
10482;BME280;5288;42.334;23.876;2024-02-28T05:09:19;56401.22;;;-140.56;100.00
10482;BME280;5288;42.334;23.876;2024-02-28T05:11:46;56419.00;;;-140.56;100.00
10482;BME280;5288;42.334;23.876;2024-02-28T05:14:13;56430.88;;;-140.56;100.00
10482;BME280;5288;42.334;23.876;2024-02-28T05:16:42;56411.09;;;-140.56;100.00
10482;BME280;5288;42.334;23.876;2024-02-28T05:19:09;56397.25;;;-140.56;100.00
10482;BME280;5288;42.334;23.876;2024-02-28T05:21:39;56389.34;;;-140.56;100.00
10482;BME280;5288;42.334;23.876;2024-02-28T05:24:08;56401.22;;;-140.56;100.00
10482;BME280;5288;42.334;23.876;2024-02-28T05:26:35;56430.88;;;-140.56;100.00
10482;BME280;5288;42.334;23.876;2024-02-28T05:29:03;56401.22;;;-140.56;100.00
10482;BME280;5288;42.334;23.876;2024-02-28T05:31:31;56415.06;;;-140.56;100.00
10482;BME280;5288;42.334;23.876;2024-02-28T05:34:00;56450.63;;;-140.56;100.00
10482;BME280;5288;42.334;23.876;2024-02-28T05:36:29;56426.91;;;-140.56;100.00
10482;BME280;5288;42.334;23.876;2024-02-28T05:38:57;56432.84;;;-140.56;100.00
10482;BME280;5288;42.334;23.876;2024-02-28T05:41:31;56436.78;;;-140.56;100.00
10482;BME280;5288;42.334;23.876;2024-02-28T05:43:58;56409.13;;;-140.56;100.00
10482;BME280;5288;42.334;23.876;2024-02-28T05:46:25;56422.97;;;-140.56;100.00
10482;BME280;5288;42.334;23.876;2024-02-28T05:48:52;56430.88;;;-140.56;100.00
10482;BME280;5288;42.334;23.876;2024-02-28T05:51:20;56420.97;;;-140.56;100.00
10482;BME280;5288;42.334;23.876;2024-02-28T05:53:48;56393.31;;;-140.56;100.00
10482;BME280;5288;42.334;23.876;2024-02-28T05:56:15;56428.88;;;-140.56;100.00
10482;BME280;5288;42.334;23.876;2024-02-28T05:58:46;56428.88;;;-140.56;100.00
10482;BME280;5288;42.334;23.876;2024-02-28T06:01:15;56415.06;;;-140.56;100.00
10482;BME280;5288;42.334;23.876;2024-02-28T06:03:44;56413.06;;;-140.56;100.00
10482;BME280;5288;42.334;23.876;2024-02-28T06:06:11;56397.25;;;-140.56;100.00
10482;BME280;5288;42.334;23.876;2024-02-28T06:08:40;56409.13;;;-140.56;100.00
10482;BME280;5288;42.334;23.876;2024-02-28T06:11:07;56395.28;;;-140.56;100.00
10482;BME280;5288;42.334;23.876;2024-02-28T06:13:35;56391.34;;;-140.56;100.00
10482;BME280;5288;42.334;23.876;2024-02-28T06:16:03;56379.47;;;-140.56;100.00
10482;BME280;5288;42.334;23.876;2024-02-28T06:18:30;56419.00;;;-140.56;100.00
10482;BME280;5288;42.334;23.876;2024-02-28T06:20:59;56361.69;;;-140.56;100.00
10482;BME280;5288;42.334;23.876;2024-02-28T06:23:27;56419.00;;;-140.56;100.00
10482;BME280;5288;42.334;23.876;2024-02-28T06:25:55;56401.22;;;-140.56;100.00
10482;BME280;5288;42.334;23.876;2024-02-28T06:28:22;56403.19;;;-140.56;100.00
10482;BME280;5288;42.334;23.876;2024-02-28T06:30:49;56405.16;;;-140.56;100.00
10482;BME280;5288;42.334;23.876;2024-02-28T06:33:16;56397.25;;;-140.56;100.00
10482;BME280;5288;42.334;23.876;2024-02-28T06:35:44;56415.06;;;-140.56;100.00
10482;BME280;5288;42.334;23.876;2024-02-28T06:38:11;56397.25;;;-140.56;100.00
10482;BME280;5288;42.334;23.876;2024-02-28T06:40:38;56419.00;;;-140.56;100.00
10482;BME280;5288;42.334;23.876;2024-02-28T06:43:06;56401.22;;;-140.56;100.00
10482;BME280;5288;42.334;23.876;2024-02-28T06:45:33;56424.94;;;-140.56;100.00
10482;BME280;5288;42.334;23.876;2024-02-28T06:48:00;56397.25;;;-140.56;100.00
10482;BME280;5288;42.334;23.876;2024-02-28T06:50:28;56399.25;;;-140.56;100.00
10482;BME280;5288;42.334;23.876;2024-02-28T06:52:55;56428.88;;;-140.56;100.00
10482;BME280;5288;42.334;23.876;2024-02-28T06:55:22;56397.25;;;-140.56;100.00
10482;BME280;5288;42.334;23.876;2024-02-28T06:57:50;56395.28;;;-140.56;100.00
10482;BME280;5288;42.334;23.876;2024-02-28T07:00:19;56397.25;;;-140.56;100.00
10482;BME280;5288;42.334;23.876;2024-02-28T07:02:46;56403.19;;;-140.56;100.00
10482;BME280;5288;42.334;23.876;2024-02-28T07:05:13;56373.56;;;-140.56;100.00
10482;BME280;5288;42.334;23.876;2024-02-28T07:07:40;56401.22;;;-140.56;100.00
10482;BME280;5288;42.334;23.876;2024-02-28T07:10:08;56389.34;;;-140.56;100.00
10482;BME280;5288;42.334;23.876;2024-02-28T07:12:35;56432.84;;;-140.56;100.00
10482;BME280;5288;42.334;23.876;2024-02-28T07:15:01;56377.50;;;-140.56;100.00
10482;BME280;5288;42.334;23.876;2024-02-28T07:17:29;56381.44;;;-140.56;100.00
10482;BME280;5288;42.334;23.876;2024-02-28T07:19:56;56395.28;;;-140.56;100.00
10482;BME280;5288;42.334;23.876;2024-02-28T07:22:23;56385.41;;;-140.56;100.00
10482;BME280;5288;42.334;23.876;2024-02-28T07:24:50;56379.47;;;-140.56;100.00
10482;BME280;5288;42.334;23.876;2024-02-28T07:27:17;56415.06;;;-140.56;100.00
10482;BME280;5288;42.334;23.876;2024-02-28T07:29:44;56377.50;;;-140.56;100.00
10482;BME280;5288;42.334;23.876;2024-02-28T07:32:11;56369.59;;;-140.56;100.00
10482;BME280;5288;42.334;23.876;2024-02-28T07:34:40;56393.31;;;-140.56;100.00
10482;BME280;5288;42.334;23.876;2024-02-28T07:37:07;56407.16;;;-140.56;100.00
10482;BME280;5288;42.334;23.876;2024-02-28T07:39:35;56377.50;;;-140.56;100.00
10482;BME280;5288;42.334;23.876;2024-02-28T07:42:02;56377.50;;;-140.56;100.00
10482;BME280;5288;42.334;23.876;2024-02-28T07:44:29;56385.41;;;-140.56;100.00
10482;BME280;5288;42.334;23.876;2024-02-28T07:46:57;56353.78;;;-140.56;100.00
10482;BME280;5288;42.334;23.876;2024-02-28T07:49:25;56351.81;;;-140.56;100.00
10482;BME280;5288;42.334;23.876;2024-02-28T07:51:53;56377.50;;;-140.56;100.00
10482;BME280;5288;42.334;23.876;2024-02-28T07:54:20;56343.91;;;-140.56;100.00
10482;BME280;5288;42.334;23.876;2024-02-28T07:56:48;56363.66;;;-140.56;100.00
10482;BME280;5288;42.334;23.876;2024-02-28T07:59:15;56341.94;;;-140.56;100.00
10482;BME280;5288;42.334;23.876;2024-02-28T08:01:42;56373.56;;;-140.56;100.00
10482;BME280;5288;42.334;23.876;2024-02-28T08:04:10;56411.09;;;-140.56;100.00
10482;BME280;5288;42.334;23.876;2024-02-28T08:06:39;56369.59;;;-140.56;100.00
10482;BME280;5288;42.334;23.876;2024-02-28T08:09:08;56389.34;;;-140.56;100.00
10482;BME280;5288;42.334;23.876;2024-02-28T08:11:35;56367.63;;;-140.56;100.00
10482;BME280;5288;42.334;23.876;2024-02-28T08:14:02;56353.78;;;-140.56;100.00
10482;BME280;5288;42.334;23.876;2024-02-28T08:16:29;56391.34;;;-140.56;100.00
10482;BME280;5288;42.334;23.876;2024-02-28T08:18:56;56377.50;;;-140.56;100.00
10482;BME280;5288;42.334;23.876;2024-02-28T08:21:24;56377.50;;;-140.56;100.00
10482;BME280;5288;42.334;23.876;2024-02-28T08:23:52;56389.34;;;-140.56;100.00
10482;BME280;5288;42.334;23.876;2024-02-28T08:26:20;56377.50;;;-140.56;100.00
10482;BME280;5288;42.334;23.876;2024-02-28T08:28:47;56343.91;;;-140.56;100.00
10482;BME280;5288;42.334;23.876;2024-02-28T08:31:14;56320.19;;;-140.56;100.00
10482;BME280;5288;42.334;23.876;2024-02-28T08:33:41;56369.59;;;-140.56;100.00
10482;BME280;5288;42.334;23.876;2024-02-28T08:36:08;56334.03;;;-140.56;100.00
10482;BME280;5288;42.334;23.876;2024-02-28T08:38:35;56332.03;;;-140.56;100.00
10482;BME280;5288;42.334;23.876;2024-02-28T08:41:04;56337.97;;;-140.56;100.00
10482;BME280;5288;42.334;23.876;2024-02-28T08:43:37;56353.78;;;-140.56;99.20
10482;BME280;5288;42.334;23.876;2024-02-28T08:46:05;56318.22;;;-140.56;99.43
10482;BME280;5288;42.334;23.876;2024-02-28T08:48:32;56324.13;;;-140.56;95.80
10482;BME280;5288;42.334;23.876;2024-02-28T08:50:59;56306.34;;;-140.56;96.35
10482;BME280;5288;42.334;23.876;2024-02-28T08:53:26;56308.34;;;-140.56;95.42
10482;BME280;5288;42.334;23.876;2024-02-28T08:55:53;56312.28;;;-140.56;94.13
10482;BME280;5288;42.334;23.876;2024-02-28T08:58:21;56320.19;;;-140.56;93.85
10482;BME280;5288;42.334;23.876;2024-02-28T09:00:49;56334.03;;;-140.56;90.82
10482;BME280;5288;42.334;23.876;2024-02-28T09:03:16;56322.16;;;-140.56;90.17
10482;BME280;5288;42.334;23.876;2024-02-28T09:05:44;56337.97;;;-140.56;89.14
10482;BME280;5288;42.334;23.876;2024-02-28T09:08:11;56341.94;;;-140.56;88.07
10482;BME280;5288;42.334;23.876;2024-02-28T09:10:38;56341.94;;;-140.56;90.27
10482;BME280;5288;42.334;23.876;2024-02-28T09:13:06;56336.00;;;-140.56;92.07
10482;BME280;5288;42.334;23.876;2024-02-28T09:15:35;56292.53;;;-140.56;89.75
10482;BME280;5288;42.334;23.876;2024-02-28T09:18:05;56304.38;;;-140.56;86.74
10482;BME280;5288;42.334;23.876;2024-02-28T09:20:32;56280.66;;;-140.56;83.74
10482;BME280;5288;42.334;23.876;2024-02-28T09:22:59;56282.63;;;-140.56;82.55
10482;BME280;5288;42.334;23.876;2024-02-28T09:25:25;56282.63;;;-140.56;81.32
10482;BME280;5288;42.334;23.876;2024-02-28T09:27:52;56294.50;;;-140.56;80.95
10482;BME280;5288;42.334;23.876;2024-02-28T09:30:19;56253.00;;;-140.56;78.85
10482;BME280;5288;42.334;23.876;2024-02-28T09:32:48;56264.84;;;-140.56;77.78
10482;BME280;5288;42.334;23.876;2024-02-28T09:35:16;56278.69;;;-140.56;76.03
10482;BME280;5288;42.334;23.876;2024-02-28T09:37:43;56296.47;;;-140.56;73.60
10482;BME280;5288;42.334;23.876;2024-02-28T09:40:11;56278.69;;;-140.56;74.10
10482;BME280;5288;42.334;23.876;2024-02-28T09:42:39;56247.06;;;-140.56;73.15
10482;BME280;5288;42.334;23.876;2024-02-28T09:45:08;56286.59;;;-140.56;70.53
10482;BME280;5288;42.334;23.876;2024-02-28T09:47:36;56253.00;;;-140.56;71.24
10482;BME280;5288;42.334;23.876;2024-02-28T09:50:04;56254.97;;;-140.56;68.52
10482;BME280;5288;42.334;23.876;2024-02-28T09:52:33;56258.94;;;-140.56;69.41
10482;BME280;5288;42.334;23.876;2024-02-28T09:55:00;56254.97;;;-140.56;70.66
10482;BME280;5288;42.334;23.876;2024-02-28T09:57:28;56262.88;;;-140.56;68.48
10482;BME280;5288;42.334;23.876;2024-02-28T09:59:58;56237.19;;;-140.56;66.02
10482;BME280;5288;42.334;23.876;2024-02-28T10:02:28;56270.78;;;-140.56;65.93
10482;BME280;5288;42.334;23.876;2024-02-28T10:04:56;56237.19;;;-140.56;66.00
10482;BME280;5288;42.334;23.876;2024-02-28T10:07:24;56278.69;;;-140.56;68.00
10482;BME280;5288;42.334;23.876;2024-02-28T10:09:53;56241.13;;;-140.56;67.99
10482;BME280;5288;42.334;23.876;2024-02-28T10:12:20;56253.00;;;-140.56;68.49
10482;BME280;5288;42.334;23.876;2024-02-28T10:14:49;56239.16;;;-140.56;67.58
10482;BME280;5288;42.334;23.876;2024-02-28T10:17:16;56217.41;;;-140.56;67.96
10482;BME280;5288;42.334;23.876;2024-02-28T10:19:44;56211.50;;;-140.56;67.50
10482;BME280;5288;42.334;23.876;2024-02-28T10:22:11;56243.13;;;-140.56;67.18
10482;BME280;5288;42.334;23.876;2024-02-28T10:24:38;56247.06;;;-140.56;65.58
10482;BME280;5288;42.334;23.876;2024-02-28T10:27:06;56211.50;;;-140.56;64.27
10482;BME280;5288;42.334;23.876;2024-02-28T10:29:33;56187.78;;;-140.56;65.50
10482;BME280;5288;42.334;23.876;2024-02-28T10:32:00;56229.28;;;-140.56;64.10
10482;BME280;5288;42.334;23.876;2024-02-28T10:34:28;56229.28;;;-140.56;63.55
10482;BME280;5288;42.334;23.876;2024-02-28T10:36:57;56207.53;;;-140.56;62.20
10482;BME280;5288;42.334;23.876;2024-02-28T10:39:24;56237.19;;;-140.56;60.08
10482;BME280;5288;42.334;23.876;2024-02-28T10:41:53;56235.22;;;-140.56;61.29
10482;BME280;5288;42.334;23.876;2024-02-28T10:44:22;56197.66;;;-140.56;61.69
10482;BME280;5288;42.334;23.876;2024-02-28T10:46:53;56264.84;;;-140.56;58.54
10482;BME280;5288;42.334;23.876;2024-02-28T10:49:21;56239.16;;;-140.56;58.30
10482;BME280;5288;42.334;23.876;2024-02-28T10:51:49;56221.38;;;-140.56;60.52
10482;BME280;5288;42.334;23.876;2024-02-28T10:54:20;56195.69;;;-140.56;61.11
10482;BME280;5288;42.334;23.876;2024-02-28T10:56:48;56185.81;;;-140.56;58.61
10482;BME280;5288;42.334;23.876;2024-02-28T10:59:16;56171.97;;;-140.56;55.34
10482;BME280;5288;42.334;23.876;2024-02-28T11:01:44;56173.94;;;-140.56;54.45
10482;BME280;5288;42.334;23.876;2024-02-28T11:04:13;56170.00;;;-140.56;54.25
10482;BME280;5288;42.334;23.876;2024-02-28T11:06:50;56209.50;;;-140.56;52.15
10482;BME280;5288;42.334;23.876;2024-02-28T11:09:20;56175.91;;;-140.56;53.86
10482;BME280;5288;42.334;23.876;2024-02-28T11:11:51;56170.00;;;-140.56;51.33
10482;BME280;5288;42.334;23.876;2024-02-28T11:14:18;56179.88;;;-140.56;50.77
10482;BME280;5288;42.334;23.876;2024-02-28T11:16:59;56162.09;;;-140.56;48.71
10482;BME280;5288;42.334;23.876;2024-02-28T11:19:28;56193.72;;;-140.56;49.43
10482;BME280;5288;42.334;23.876;2024-02-28T11:21:56;56179.88;;;-140.56;49.97
10482;BME280;5288;42.334;23.876;2024-02-28T11:24:23;56168.00;;;-140.56;51.18
10482;BME280;5288;42.334;23.876;2024-02-28T11:26:51;56170.00;;;-140.56;49.18
10482;BME280;5288;42.334;23.876;2024-02-28T11:29:22;56156.16;;;-140.56;46.88
10482;BME280;5288;42.334;23.876;2024-02-28T11:31:52;56136.41;;;-140.56;47.89
10482;BME280;5288;42.334;23.876;2024-02-28T11:34:20;56148.25;;;-140.56;45.98
10482;BME280;5288;42.334;23.876;2024-02-28T11:36:47;56152.22;;;-140.56;45.92
10482;BME280;5288;42.334;23.876;2024-02-28T11:39:16;56146.28;;;-140.56;46.45
10482;BME280;5288;42.334;23.876;2024-02-28T11:41:43;56170.00;;;-140.56;45.46
10482;BME280;5288;42.334;23.876;2024-02-28T11:44:12;56134.41;;;-140.56;43.85
10482;BME280;5288;42.334;23.876;2024-02-28T11:46:43;56144.31;;;-140.56;43.70
10482;BME280;5288;42.334;23.876;2024-02-28T11:49:12;56124.53;;;-140.56;42.17
10482;BME280;5288;42.334;23.876;2024-02-28T11:51:40;56114.66;;;-140.56;42.48
10482;BME280;5288;42.334;23.876;2024-02-28T11:54:08;56128.50;;;-140.56;41.61
10482;BME280;5288;42.334;23.876;2024-02-28T11:56:36;56150.22;;;-140.56;42.69
10482;BME280;5288;42.334;23.876;2024-02-28T11:59:03;56142.31;;;-140.56;42.47
10482;BME280;5288;42.334;23.876;2024-02-28T12:01:35;56156.16;;;-140.56;40.99
10482;BME280;5288;42.334;23.876;2024-02-28T12:04:03;56144.31;;;-140.56;42.25
10482;BME280;5288;42.334;23.876;2024-02-28T12:06:34;56126.50;;;-140.56;41.75
10482;BME280;5288;42.334;23.876;2024-02-28T12:09:02;56092.91;;;-140.56;42.88
10482;BME280;5288;42.334;23.876;2024-02-28T12:11:30;56150.22;;;-140.56;42.07
10482;BME280;5288;42.334;23.876;2024-02-28T12:13:57;56144.31;;;-140.56;41.48
10482;BME280;5288;42.334;23.876;2024-02-28T12:16:25;56108.72;;;-140.56;42.19
10482;BME280;5288;42.334;23.876;2024-02-28T12:18:53;56154.19;;;-140.56;42.67
10482;BME280;5288;42.334;23.876;2024-02-28T12:21:20;56132.44;;;-140.56;42.15
10482;BME280;5288;42.334;23.876;2024-02-28T12:23:49;56120.59;;;-140.56;41.29
10482;BME280;5288;42.334;23.876;2024-02-28T12:26:17;56136.41;;;-140.56;41.88
10482;BME280;5288;42.334;23.876;2024-02-28T12:28:44;56098.84;;;-140.56;41.40
10482;BME280;5288;42.334;23.876;2024-02-28T12:31:13;56116.63;;;-140.56;40.63
10482;BME280;5288;42.334;23.876;2024-02-28T12:33:40;56102.81;;;-140.56;40.86
10482;BME280;5288;42.334;23.876;2024-02-28T12:36:08;56140.34;;;-140.56;40.61